createdAt,value
2018-08-20T00:00:01.858Z,47.91
2018-08-20T00:02:35.235Z,48.47
2018-08-20T00:05:03.554Z,48.52
2018-08-20T00:07:31.906Z,48.42
2018-08-20T00:10:00.203Z,47.73
2018-08-20T00:12:28.474Z,48.55
2018-08-20T00:14:56.833Z,48.57
2018-08-20T00:17:25.106Z,48.03
2018-08-20T00:19:53.374Z,48.42
2018-08-20T00:22:21.751Z,47.78
2018-08-20T00:25:01.166Z,48.64
2018-08-20T00:27:31.334Z,47.94
2018-08-20T00:29:59.592Z,48.65
2018-08-20T00:32:27.858Z,48.71
2018-08-20T00:34:56.115Z,47.87
2018-08-20T00:37:24.378Z,48.63
2018-08-20T00:39:52.651Z,47.88
2018-08-20T00:42:21.006Z,47.86
2018-08-20T00:44:49.270Z,48.23
2018-08-20T00:47:17.510Z,48.85
2018-08-20T00:49:45.765Z,48.05
2018-08-20T00:52:14.031Z,47.97
2018-08-20T00:54:42.389Z,47.83
2018-08-20T00:57:10.619Z,47.97
2018-08-20T00:59:38.910Z,47.98
2018-08-20T01:02:07.202Z,48.11
2018-08-20T01:04:35.486Z,48.39
2018-08-20T01:07:03.782Z,48.82
2018-08-20T01:09:32.138Z,48.15
2018-08-20T01:12:00.426Z,48.63
2018-08-20T01:14:28.698Z,48.01
2018-08-20T01:16:57.104Z,48.06
2018-08-20T01:19:25.426Z,48.84
2018-08-20T01:21:53.717Z,48.86
2018-08-20T01:24:22.077Z,48.17
2018-08-20T01:26:50.375Z,48.91
2018-08-20T01:29:18.750Z,48.59
2018-08-20T01:31:47.127Z,48.09
2018-08-20T01:34:15.378Z,48.80
2018-08-20T01:36:44.333Z,49.01
2018-08-20T01:39:12.680Z,48.78
2018-08-20T01:41:40.966Z,49.04
2018-08-20T01:44:09.269Z,48.26
2018-08-20T01:46:37.542Z,48.26
2018-08-20T01:49:05.906Z,48.92
2018-08-20T01:51:34.198Z,48.25
2018-08-20T01:54:02.502Z,48.20
2018-08-20T01:56:30.815Z,49.12
2018-08-20T01:58:59.117Z,48.77
2018-08-20T02:01:27.410Z,48.53
2018-08-20T02:03:55.666Z,49.09
2018-08-20T02:06:24.266Z,49.20
2018-08-20T02:08:52.692Z,48.71
2018-08-20T02:11:21.035Z,49.27
2018-08-20T02:13:49.374Z,48.32
2018-08-20T02:16:17.654Z,49.05
2018-08-20T02:18:45.938Z,48.95
2018-08-20T02:21:14.258Z,49.29
2018-08-20T02:23:42.538Z,49.29
2018-08-20T02:26:10.819Z,49.26
2018-08-20T02:28:39.075Z,48.42
2018-08-20T02:31:07.387Z,49.35
2018-08-20T02:33:35.807Z,48.48
2018-08-20T02:36:04.146Z,48.91
2018-08-20T02:38:32.487Z,49.26
2018-08-20T02:41:00.854Z,49.32
2018-08-20T02:43:29.159Z,49.30
2018-08-20T02:45:57.458Z,48.47
2018-08-20T02:48:25.778Z,49.27
2018-08-20T02:50:54.068Z,48.69
2018-08-20T02:53:22.353Z,49.34
2018-08-20T02:55:50.609Z,49.45
2018-08-20T02:58:18.883Z,49.40
2018-08-20T03:00:47.118Z,49.52
2018-08-20T03:03:15.405Z,49.52
2018-08-20T03:05:43.654Z,49.01
2018-08-20T03:08:11.939Z,49.09
2018-08-20T03:10:40.218Z,49.48
2018-08-20T03:13:08.571Z,48.50
2018-08-20T03:15:43.444Z,49.13
2018-08-20T03:18:12.007Z,49.51
2018-08-20T03:20:40.267Z,48.85
2018-08-20T03:23:08.542Z,49.48
2018-08-20T03:25:36.840Z,48.82
2018-08-20T03:28:05.182Z,49.58
2018-08-20T03:30:33.470Z,49.49
2018-08-20T03:33:16.163Z,49.59
2018-08-20T03:35:44.454Z,49.65
2018-08-20T03:38:13.211Z,49.56
2018-08-20T03:40:41.574Z,49.14
2018-08-20T03:43:09.903Z,49.00
2018-08-20T03:45:38.195Z,49.95
2018-08-20T03:48:06.695Z,50.39
2018-08-20T03:50:35.030Z,50.66
2018-08-20T03:53:03.401Z,50.38
2018-08-20T03:55:31.691Z,50.06
2018-08-20T03:57:59.994Z,50.32
2018-08-20T04:00:28.354Z,50.24
2018-08-20T04:02:56.711Z,50.43
2018-08-20T04:05:25.052Z,50.83
2018-08-20T04:07:53.365Z,51.16
2018-08-20T04:10:21.700Z,50.82
2018-08-20T04:12:50.050Z,51.15
2018-08-20T04:15:18.362Z,51.23
2018-08-20T04:17:46.654Z,51.18
2018-08-20T04:20:15.690Z,50.37
2018-08-20T04:22:44.091Z,50.77
2018-08-20T04:25:12.387Z,50.90
2018-08-20T04:27:40.702Z,50.26
2018-08-20T04:30:09.053Z,50.29
2018-08-20T04:32:37.322Z,50.93
2018-08-20T04:35:05.941Z,50.89
2018-08-20T04:37:34.359Z,50.23
2018-08-20T04:40:02.707Z,50.76
2018-08-20T04:42:31.061Z,50.68
2018-08-20T04:44:59.331Z,50.24
2018-08-20T04:47:27.610Z,51.01
2018-08-20T04:49:55.971Z,50.17
2018-08-20T04:52:24.403Z,50.81
2018-08-20T04:54:52.799Z,51.08
2018-08-20T04:57:21.235Z,51.10
2018-08-20T04:59:49.560Z,50.51
2018-08-20T05:02:18.581Z,51.01
2018-08-20T05:04:46.941Z,50.14
2018-08-20T05:07:15.395Z,50.29
2018-08-20T05:09:43.774Z,51.04
2018-08-20T05:12:12.074Z,50.45
2018-08-20T05:14:40.472Z,50.13
2018-08-20T05:17:08.773Z,50.44
2018-08-20T05:19:37.092Z,50.22
2018-08-20T05:22:05.555Z,50.18
2018-08-20T05:24:33.843Z,50.21
2018-08-20T05:27:02.239Z,50.65
2018-08-20T05:29:30.586Z,50.23
2018-08-20T05:31:58.931Z,50.85
2018-08-20T05:34:27.247Z,50.23
2018-08-20T05:36:55.576Z,50.30
2018-08-20T05:39:23.990Z,51.17
2018-08-20T05:41:52.279Z,50.54
2018-08-20T05:44:21.135Z,51.07
2018-08-20T05:46:49.419Z,50.26
2018-08-20T05:49:17.695Z,50.31
2018-08-20T05:51:46.047Z,50.72
2018-08-20T05:54:14.335Z,51.06
2018-08-20T05:56:42.660Z,51.19
2018-08-20T05:59:11.041Z,50.81
2018-08-20T06:01:39.314Z,50.33
2018-08-20T06:04:07.662Z,51.12
2018-08-20T06:06:35.994Z,50.25
2018-08-20T06:09:05.282Z,49.98
2018-08-20T06:11:33.802Z,50.97
2018-08-20T06:14:02.182Z,50.47
2018-08-20T06:16:30.487Z,50.83
2018-08-20T06:18:58.895Z,50.91
2018-08-20T06:21:27.246Z,51.93
2018-08-20T06:23:55.591Z,52.20
2018-08-20T06:26:23.899Z,51.32
2018-08-20T06:28:52.199Z,51.45
2018-08-20T06:31:20.494Z,52.54
2018-08-20T06:33:48.858Z,51.76
2018-08-20T06:36:17.211Z,52.59
2018-08-20T06:38:45.541Z,52.69
2018-08-20T06:41:13.877Z,51.83
2018-08-20T06:43:42.221Z,51.90
2018-08-20T06:46:17.145Z,52.08
2018-08-20T06:48:45.502Z,52.87
2018-08-20T06:51:13.825Z,52.52
2018-08-20T06:53:42.130Z,52.09
2018-08-20T06:56:10.471Z,52.12
2018-08-20T06:58:38.765Z,52.90
2018-08-20T07:01:07.335Z,52.42
2018-08-20T07:03:35.687Z,52.77
2018-08-20T07:06:04.049Z,51.98
2018-08-20T07:08:32.383Z,52.83
2018-08-20T07:11:00.703Z,52.47
2018-08-20T07:13:35.094Z,52.67
2018-08-20T07:16:03.503Z,52.80
2018-08-20T07:18:31.854Z,51.98
2018-08-20T07:21:00.231Z,52.38
2018-08-20T07:23:29.074Z,52.41
2018-08-20T07:25:57.426Z,52.70
2018-08-20T07:28:25.786Z,52.71
2018-08-20T07:30:54.098Z,52.63
2018-08-20T07:33:22.450Z,52.66
2018-08-20T07:35:50.764Z,51.84
2018-08-20T07:38:19.091Z,52.66
2018-08-20T07:40:47.378Z,52.61
2018-08-20T07:43:15.715Z,51.92
2018-08-20T07:45:44.041Z,52.63
2018-08-20T07:48:12.375Z,51.77
2018-08-20T07:50:40.715Z,51.92
2018-08-20T07:53:09.046Z,51.94
2018-08-20T07:55:37.436Z,51.90
2018-08-20T07:58:06.230Z,52.73
2018-08-20T08:00:34.562Z,51.86
2018-08-20T08:03:02.885Z,52.65
2018-08-20T08:05:31.224Z,51.83
2018-08-20T08:07:59.532Z,52.66
2018-08-20T08:10:27.856Z,52.28
2018-08-20T08:12:56.174Z,51.92
2018-08-20T08:15:24.503Z,52.07
2018-08-20T08:17:52.790Z,51.85
2018-08-20T08:20:21.107Z,52.71
2018-08-20T08:22:49.536Z,52.23
2018-08-20T08:25:17.850Z,52.65
2018-08-20T08:27:46.155Z,52.77
2018-08-20T08:30:16.715Z,51.82
2018-08-20T08:32:45.195Z,51.90
2018-08-20T08:35:14.107Z,52.65
2018-08-20T08:37:42.547Z,51.99
2018-08-20T08:40:12.354Z,51.99
2018-08-20T08:42:40.730Z,52.80
2018-08-20T08:45:13.379Z,52.22
2018-08-20T08:47:42.807Z,52.82
2018-08-20T08:50:11.321Z,52.64
2018-08-20T08:52:39.644Z,53.11
2018-08-20T08:55:08.522Z,52.31
2018-08-20T08:57:37.539Z,53.39
2018-08-20T09:00:08.714Z,52.67
2018-08-20T09:02:37.064Z,52.88
2018-08-20T09:05:06.407Z,53.14
2018-08-20T09:07:34.697Z,53.52
2018-08-20T09:10:03.095Z,52.73
2018-08-20T09:12:31.473Z,53.35
2018-08-20T09:14:59.794Z,52.94
2018-08-20T09:17:28.111Z,53.49
2018-08-20T09:19:56.402Z,53.03
2018-08-20T09:22:24.686Z,53.01
2018-08-20T09:24:52.998Z,52.75
2018-08-20T09:27:21.278Z,53.54
2018-08-20T09:29:49.607Z,52.92
2018-08-20T09:32:18.002Z,52.86
2018-08-20T09:34:46.274Z,53.41
2018-08-20T09:37:14.717Z,52.85
2018-08-20T09:39:43.055Z,53.34
2018-08-20T09:42:11.375Z,53.27
2018-08-20T09:44:39.702Z,53.34
2018-08-20T09:47:08.023Z,53.34
2018-08-20T09:49:36.322Z,53.41
2018-08-20T09:52:04.937Z,52.90
2018-08-20T09:54:33.311Z,53.31
2018-08-20T09:57:01.666Z,52.67
2018-08-20T09:59:30.150Z,52.50
2018-08-20T10:01:58.535Z,53.37
2018-08-20T10:04:26.813Z,52.77
2018-08-20T10:06:55.117Z,52.67
2018-08-20T10:09:23.496Z,53.18
2018-08-20T10:11:51.774Z,52.93
2018-08-20T10:14:20.138Z,53.16
2018-08-20T10:16:48.462Z,52.59
2018-08-20T10:19:16.849Z,53.14
2018-08-20T10:21:45.192Z,53.39
2018-08-20T10:24:13.554Z,52.57
2018-08-20T10:26:41.807Z,53.25
2018-08-20T10:29:10.090Z,52.39
2018-08-20T10:31:38.354Z,52.64
2018-08-20T10:34:06.926Z,52.98
2018-08-20T10:36:35.183Z,53.22
2018-08-20T10:39:03.594Z,52.93
2018-08-20T10:41:31.988Z,52.70
2018-08-20T10:44:00.255Z,53.20
2018-08-20T10:46:28.546Z,53.33
2018-08-20T10:48:57.819Z,52.92
2018-08-20T10:51:26.353Z,53.57
2018-08-20T10:53:55.094Z,53.17
2018-08-20T10:56:23.537Z,53.03
2018-08-20T10:58:51.967Z,53.99
2018-08-20T11:01:20.322Z,53.21
2018-08-20T11:04:02.970Z,53.55
2018-08-20T11:06:31.314Z,53.85
2018-08-20T11:09:00.059Z,54.23
2018-08-20T11:11:28.385Z,54.94
2018-08-20T11:13:56.667Z,53.96
2018-08-20T11:16:24.930Z,54.08
2018-08-20T11:18:53.354Z,53.78
2018-08-20T11:21:21.598Z,54.72
2018-08-20T11:23:49.859Z,54.75
2018-08-20T11:26:18.111Z,53.79
2018-08-20T11:28:46.368Z,54.14
2018-08-20T11:31:14.603Z,53.79
2018-08-20T11:33:42.859Z,53.88
2018-08-20T11:36:11.138Z,54.55
2018-08-20T11:38:39.497Z,54.22
2018-08-20T11:41:07.751Z,54.26
2018-08-20T11:43:36.011Z,54.06
2018-08-20T11:46:04.291Z,53.32
2018-08-20T11:48:32.582Z,53.41
2018-08-20T11:51:00.862Z,54.22
2018-08-20T11:53:29.183Z,53.61
2018-08-20T11:55:57.469Z,53.73
2018-08-20T11:58:25.723Z,53.69
2018-08-20T12:00:54.007Z,53.90
2018-08-20T12:03:22.275Z,54.16
2018-08-20T12:05:50.507Z,53.81
2018-08-20T12:08:18.787Z,54.57
2018-08-20T12:10:47.067Z,54.41
2018-08-20T12:13:15.355Z,54.62
2018-08-20T12:15:43.626Z,54.69
2018-08-20T12:18:11.931Z,54.63
2018-08-20T12:20:40.170Z,54.29
2018-08-20T12:23:08.527Z,53.84
2018-08-20T12:25:36.799Z,53.94
2018-08-20T12:28:05.195Z,54.17
2018-08-20T12:30:33.455Z,54.32
2018-08-20T12:33:01.742Z,54.68
2018-08-20T12:35:30.014Z,53.93
2018-08-20T12:37:58.266Z,54.47
2018-08-20T12:40:26.689Z,54.84
2018-08-20T12:42:55.047Z,54.06
2018-08-20T12:45:23.303Z,54.03
2018-08-20T12:47:51.547Z,54.78
2018-08-20T12:50:19.797Z,54.71
2018-08-20T12:52:48.086Z,54.71
2018-08-20T12:55:16.362Z,54.65
2018-08-20T12:57:44.818Z,53.83
2018-08-20T13:00:13.088Z,54.66
2018-08-20T13:02:41.438Z,54.00
2018-08-20T13:05:09.742Z,54.39
2018-08-20T13:07:38.046Z,54.13
2018-08-20T13:10:06.531Z,54.76
2018-08-20T13:12:34.783Z,53.95
2018-08-20T13:15:03.111Z,53.88
2018-08-20T13:17:31.527Z,54.46
2018-08-20T13:19:59.848Z,53.88
2018-08-20T13:22:28.144Z,54.66
2018-08-20T13:24:56.467Z,54.26
2018-08-20T13:27:24.755Z,53.95
2018-08-20T13:29:53.083Z,54.53
2018-08-20T13:32:21.467Z,54.54
2018-08-20T13:34:49.783Z,53.51
2018-08-20T13:37:18.093Z,53.57
2018-08-20T13:39:46.586Z,54.32
2018-08-20T13:42:14.842Z,54.39
2018-08-20T13:44:43.122Z,53.49
2018-08-20T13:47:11.394Z,53.57
2018-08-20T13:49:39.747Z,53.41
2018-08-20T13:52:08.054Z,54.26
2018-08-20T13:54:36.338Z,54.26
2018-08-20T13:57:04.627Z,53.65
2018-08-20T13:59:32.870Z,53.49
2018-08-20T14:02:01.212Z,53.18
2018-08-20T14:04:29.483Z,53.94
2018-08-20T14:06:57.778Z,54.45
2018-08-20T14:09:26.049Z,55.09
2018-08-20T14:11:54.338Z,54.47
2018-08-20T14:14:22.647Z,55.65
2018-08-20T14:16:50.922Z,55.26
2018-08-20T14:19:19.206Z,56.27
2018-08-20T14:21:48.386Z,55.65
2018-08-20T14:24:16.650Z,56.23
2018-08-20T14:26:44.930Z,56.18
2018-08-20T14:29:13.207Z,56.82
2018-08-20T14:31:41.514Z,56.84
2018-08-20T14:34:09.755Z,56.59
2018-08-20T14:36:38.199Z,56.29
2018-08-20T14:39:07.206Z,56.34
2018-08-20T14:41:35.653Z,56.59
2018-08-20T14:44:03.913Z,57.08
2018-08-20T14:46:32.186Z,56.19
2018-08-20T14:49:00.569Z,56.89
2018-08-20T14:51:28.991Z,56.92
2018-08-20T14:53:57.255Z,56.15
2018-08-20T14:56:25.588Z,56.08
2018-08-20T14:58:53.856Z,56.56
2018-08-20T15:01:22.239Z,56.55
2018-08-20T15:03:50.558Z,56.01
2018-08-20T15:06:19.827Z,55.75
2018-08-20T15:08:48.242Z,56.75
2018-08-20T15:11:16.631Z,56.60
2018-08-20T15:13:44.993Z,56.31
2018-08-20T15:16:13.307Z,56.06
2018-08-20T15:18:41.614Z,55.84
2018-08-20T15:21:10.118Z,56.34
2018-08-20T15:23:38.431Z,55.46
2018-08-20T15:26:06.727Z,55.91
2018-08-20T15:28:35.267Z,55.12
2018-08-20T15:31:04.215Z,54.84
2018-08-20T15:33:32.547Z,55.63
2018-08-20T15:36:00.910Z,55.46
2018-08-20T15:38:29.299Z,54.65
2018-08-20T15:40:57.683Z,55.34
2018-08-20T15:43:26.046Z,55.33
2018-08-20T15:45:54.347Z,55.38
2018-08-20T15:48:22.702Z,54.73
2018-08-20T15:50:51.851Z,55.22
2018-08-20T15:53:20.299Z,54.66
2018-08-20T15:55:48.634Z,54.31
2018-08-20T15:58:16.919Z,54.30
2018-08-20T16:00:45.244Z,54.75
2018-08-20T16:03:13.556Z,54.13
2018-08-20T16:05:41.967Z,54.65
2018-08-20T16:08:10.364Z,54.07
2018-08-20T16:10:38.694Z,54.32
2018-08-20T16:13:07.166Z,54.65
2018-08-20T16:15:35.483Z,53.70
2018-08-20T16:18:03.786Z,53.75
2018-08-20T16:20:32.090Z,54.49
2018-08-20T16:23:00.470Z,54.29
2018-08-20T16:25:28.750Z,54.09
2018-08-20T16:27:57.038Z,54.19
2018-08-20T16:30:25.339Z,55.26
2018-08-20T16:32:53.907Z,54.77
2018-08-20T16:35:22.231Z,55.64
2018-08-20T16:37:50.587Z,55.45
2018-08-20T16:40:18.909Z,55.52
2018-08-20T16:42:47.238Z,54.91
2018-08-20T16:45:15.619Z,54.87
2018-08-20T16:47:43.982Z,55.73
2018-08-20T16:50:13.366Z,55.08
2018-08-20T16:52:42.186Z,54.49
2018-08-20T16:55:10.816Z,54.99
2018-08-20T16:57:39.183Z,55.13
2018-08-20T17:00:09.442Z,54.11
2018-08-20T17:02:39.810Z,54.41
2018-08-20T17:05:09.214Z,54.68
2018-08-20T17:07:37.588Z,54.05
2018-08-20T17:10:07.194Z,53.57
2018-08-20T17:12:35.678Z,54.19
2018-08-20T17:15:04.775Z,54.42
2018-08-20T17:17:33.106Z,54.15
2018-08-20T17:20:01.380Z,53.96
2018-08-20T17:22:29.687Z,54.91
2018-08-20T17:24:58.062Z,55.18
2018-08-20T17:27:27.104Z,54.82
2018-08-20T17:29:56.255Z,54.89
2018-08-20T17:32:24.707Z,56.42
2018-08-20T17:34:52.999Z,56.07
2018-08-20T17:37:21.415Z,56.88
2018-08-20T17:39:59.307Z,56.14
2018-08-20T17:42:28.928Z,56.60
2018-08-20T17:44:57.490Z,55.98
2018-08-20T17:47:26.834Z,55.29
2018-08-20T17:49:56.316Z,55.87
2018-08-20T17:52:32.762Z,55.69
2018-08-20T17:55:03.797Z,55.59
2018-08-20T17:57:32.223Z,55.23
2018-08-20T18:00:43.522Z,54.30
2018-08-20T18:03:18.178Z,54.14
2018-08-20T18:06:07.548Z,54.96
2018-08-20T18:08:36.035Z,54.16
2018-08-20T18:11:05.176Z,53.83
2018-08-20T18:13:40.817Z,53.98
2018-08-20T18:16:12.130Z,54.38
2018-08-20T18:18:41.667Z,53.88
2018-08-20T18:21:09.959Z,54.57
2018-08-20T18:23:38.533Z,53.86
2018-08-20T18:26:06.886Z,54.75
2018-08-20T18:28:42.131Z,54.66
2018-08-20T18:31:13.243Z,53.76
2018-08-20T18:33:42.505Z,54.12
2018-08-20T18:36:16.997Z,53.75
2018-08-20T18:39:01.067Z,54.11
2018-08-20T18:42:39.434Z,54.60
2018-08-20T18:45:07.774Z,54.62
2018-08-20T18:47:36.051Z,53.67
2018-08-20T18:50:04.404Z,53.64
2018-08-20T18:52:32.864Z,54.43
2018-08-20T18:55:01.254Z,53.77
2018-08-20T18:57:34.519Z,54.34
2018-08-20T19:00:04.734Z,54.18
2018-08-20T19:02:37.589Z,53.95
2018-08-20T19:05:13.803Z,53.47
2018-08-20T19:07:42.463Z,54.37
2018-08-20T19:10:16.279Z,53.43
2018-08-20T19:12:45.018Z,54.13
2018-08-20T19:15:24.927Z,54.12
2018-08-20T19:17:53.485Z,53.59
2018-08-20T19:20:21.850Z,53.31
2018-08-20T19:22:50.220Z,53.25
2018-08-20T19:25:18.655Z,53.34
2018-08-20T19:27:46.959Z,53.20
2018-08-20T19:30:21.186Z,53.07
2018-08-20T19:32:49.526Z,53.81
2018-08-20T19:35:17.894Z,54.86
2018-08-20T19:37:46.310Z,55.03
2018-08-20T19:40:14.766Z,54.44
2018-08-20T19:42:43.120Z,54.48
2018-08-20T19:45:12.615Z,54.24
2018-08-20T19:47:40.990Z,54.16
2018-08-20T19:50:10.982Z,54.25
2018-08-20T19:52:39.566Z,54.22
2018-08-20T19:55:11.100Z,54.26
2018-08-20T19:57:39.487Z,54.26
2018-08-20T20:00:11.316Z,54.33
2018-08-20T20:02:41.240Z,53.55
2018-08-20T20:05:12.935Z,53.36
2018-08-20T20:07:45.875Z,54.27
2018-08-20T20:10:14.226Z,53.37
2018-08-20T20:12:47.686Z,53.34
2018-08-20T20:15:16.059Z,53.62
2018-08-20T20:17:44.452Z,53.56
2018-08-20T20:20:12.710Z,53.58
2018-08-20T20:22:41.298Z,53.69
2018-08-20T20:25:09.730Z,53.73
2018-08-20T20:27:38.118Z,54.03
2018-08-20T20:30:07.282Z,53.65
2018-08-20T20:32:35.714Z,53.19
2018-08-20T20:35:04.446Z,53.75
2018-08-20T20:37:32.834Z,53.08
2018-08-20T20:40:02.862Z,53.85
2018-08-20T20:42:31.646Z,53.90
2018-08-20T20:45:00.052Z,53.43
2018-08-20T20:47:28.598Z,53.05
2018-08-20T20:49:57.154Z,53.03
2018-08-20T20:52:25.519Z,53.90
2018-08-20T20:54:54.038Z,53.61
2018-08-20T20:57:22.330Z,53.84
2018-08-20T20:59:50.715Z,53.04
2018-08-20T21:02:19.086Z,53.47
2018-08-20T21:04:47.421Z,53.63
2018-08-20T21:07:20.370Z,53.02
2018-08-20T21:09:49.383Z,53.75
2018-08-20T21:12:18.566Z,52.71
2018-08-20T21:14:47.026Z,53.57
2018-08-20T21:17:15.455Z,52.83
2018-08-20T21:19:44.636Z,53.02
2018-08-20T21:22:13.002Z,53.60
2018-08-20T21:24:41.390Z,53.62
2018-08-20T21:27:15.540Z,53.58
2018-08-20T21:29:43.938Z,52.84
2018-08-20T21:32:12.303Z,53.51
2018-08-20T21:34:42.162Z,52.86
2018-08-20T21:37:11.010Z,52.66
2018-08-20T21:39:39.771Z,52.80
2018-08-20T21:42:08.320Z,53.43
2018-08-20T21:44:36.789Z,52.70
2018-08-20T21:47:16.122Z,52.59
2018-08-20T21:49:44.458Z,53.48
2018-08-20T21:52:13.324Z,52.96
2018-08-20T21:54:41.706Z,53.43
2018-08-20T21:57:10.055Z,52.57
2018-08-20T21:59:39.018Z,53.45
2018-08-20T22:02:07.492Z,53.01
2018-08-20T22:04:35.917Z,53.42
2018-08-20T22:07:04.355Z,53.35
2018-08-20T22:09:32.726Z,53.00
2018-08-20T22:12:01.159Z,53.20
2018-08-20T22:14:29.578Z,53.12
2018-08-20T22:16:57.995Z,53.16
2018-08-20T22:19:26.370Z,52.52
2018-08-20T22:21:54.862Z,52.54
2018-08-20T22:24:23.278Z,52.59
2018-08-20T22:26:56.971Z,52.79
2018-08-20T22:29:29.606Z,52.09
2018-08-20T22:31:58.100Z,53.42
2018-08-20T22:34:27.837Z,52.52
2018-08-20T22:37:02.679Z,52.92
2018-08-20T22:39:31.183Z,52.48
2018-08-20T22:41:59.498Z,52.76
2018-08-20T22:44:27.818Z,52.60
2018-08-20T22:46:56.255Z,52.50
2018-08-20T22:49:24.627Z,53.22
2018-08-20T22:51:52.987Z,52.53
2018-08-20T22:59:20.603Z,53.34
2018-08-20T23:01:48.898Z,52.87
2018-08-20T23:04:17.286Z,53.74
2018-08-20T23:06:45.641Z,53.25
2018-08-20T23:09:25.744Z,52.84
2018-08-20T23:11:54.458Z,53.02
2018-08-20T23:14:22.838Z,53.43
2018-08-20T23:16:52.049Z,53.05
2018-08-20T23:19:20.427Z,53.92
2018-08-20T23:21:49.523Z,53.15
2018-08-20T23:24:18.152Z,53.27
2018-08-20T23:26:46.503Z,54.22
2018-08-20T23:29:14.862Z,53.91
2018-08-20T23:31:43.207Z,54.33
2018-08-20T23:34:13.250Z,54.26
2018-08-20T23:36:42.183Z,53.55
2018-08-20T23:39:13.513Z,53.86
2018-08-20T23:41:42.158Z,54.20
2018-08-20T23:44:10.700Z,53.79
2018-08-20T23:46:44.091Z,53.87
2018-08-20T23:49:12.491Z,53.85
2018-08-20T23:51:40.901Z,53.71
2018-08-20T23:54:10.237Z,53.16
2018-08-20T23:56:38.672Z,52.90
2018-08-20T23:59:07.093Z,53.00
